sensor_id;sensor_type;location;lat;lon;timestamp;temperature;humidity
18147;DHT22;9199;48.832;9.182;2024-02-26T00:00:14;8.20;99.90
18147;DHT22;9199;48.832;9.182;2024-02-26T00:02:41;8.30;99.90
18147;DHT22;9199;48.832;9.182;2024-02-26T00:05:09;8.30;99.90
18147;DHT22;9199;48.832;9.182;2024-02-26T00:07:36;8.40;99.90
18147;DHT22;9199;48.832;9.182;2024-02-26T00:10:03;8.40;99.90
18147;DHT22;9199;48.832;9.182;2024-02-26T00:12:30;8.30;99.90
18147;DHT22;9199;48.832;9.182;2024-02-26T00:14:57;8.10;99.90
18147;DHT22;9199;48.832;9.182;2024-02-26T00:17:24;8.00;99.90
18147;DHT22;9199;48.832;9.182;2024-02-26T00:19:51;7.90;99.90
18147;DHT22;9199;48.832;9.182;2024-02-26T00:22:20;7.80;99.90
18147;DHT22;9199;48.832;9.182;2024-02-26T00:24:47;7.60;99.90
18147;DHT22;9199;48.832;9.182;2024-02-26T00:27:14;7.60;99.90
18147;DHT22;9199;48.832;9.182;2024-02-26T00:29:41;7.60;99.90
18147;DHT22;9199;48.832;9.182;2024-02-26T00:32:07;7.60;99.90
18147;DHT22;9199;48.832;9.182;2024-02-26T00:34:34;7.50;99.90
18147;DHT22;9199;48.832;9.182;2024-02-26T00:37:01;7.50;99.90
18147;DHT22;9199;48.832;9.182;2024-02-26T00:39:29;7.40;99.90
18147;DHT22;9199;48.832;9.182;2024-02-26T00:41:56;7.40;99.90
18147;DHT22;9199;48.832;9.182;2024-02-26T00:44:23;7.40;99.90
18147;DHT22;9199;48.832;9.182;2024-02-26T00:46:50;7.50;99.90
18147;DHT22;9199;48.832;9.182;2024-02-26T00:49:16;7.50;99.90
18147;DHT22;9199;48.832;9.182;2024-02-26T00:51:43;7.50;99.90
18147;DHT22;9199;48.832;9.182;2024-02-26T00:54:10;7.50;99.90
18147;DHT22;9199;48.832;9.182;2024-02-26T00:56:38;7.60;99.90
18147;DHT22;9199;48.832;9.182;2024-02-26T00:59:04;7.60;99.90
18147;DHT22;9199;48.832;9.182;2024-02-26T01:01:31;7.60;99.90
18147;DHT22;9199;48.832;9.182;2024-02-26T01:03:58;7.60;99.90
18147;DHT22;9199;48.832;9.182;2024-02-26T01:06:25;7.60;99.90
18147;DHT22;9199;48.832;9.182;2024-02-26T01:08:51;7.70;99.90
18147;DHT22;9199;48.832;9.182;2024-02-26T01:11:18;7.70;99.90
18147;DHT22;9199;48.832;9.182;2024-02-26T01:13:46;7.70;99.90
18147;DHT22;9199;48.832;9.182;2024-02-26T01:16:13;7.60;99.90
18147;DHT22;9199;48.832;9.182;2024-02-26T01:18:39;7.70;99.90
18147;DHT22;9199;48.832;9.182;2024-02-26T01:21:06;7.60;99.90
18147;DHT22;9199;48.832;9.182;2024-02-26T01:23:34;7.60;99.90
18147;DHT22;9199;48.832;9.182;2024-02-26T01:26:01;7.60;99.90
18147;DHT22;9199;48.832;9.182;2024-02-26T01:28:28;7.50;99.90
18147;DHT22;9199;48.832;9.182;2024-02-26T01:30:56;7.60;99.90
18147;DHT22;9199;48.832;9.182;2024-02-26T01:33:24;7.60;99.90
18147;DHT22;9199;48.832;9.182;2024-02-26T01:35:51;7.50;99.90
18147;DHT22;9199;48.832;9.182;2024-02-26T01:38:18;7.50;99.90
18147;DHT22;9199;48.832;9.182;2024-02-26T01:40:45;7.60;99.90
18147;DHT22;9199;48.832;9.182;2024-02-26T01:43:12;7.70;99.90
18147;DHT22;9199;48.832;9.182;2024-02-26T01:45:38;7.70;99.90
18147;DHT22;9199;48.832;9.182;2024-02-26T01:48:07;7.80;99.90
18147;DHT22;9199;48.832;9.182;2024-02-26T01:50:36;7.70;99.90
18147;DHT22;9199;48.832;9.182;2024-02-26T01:53:03;7.70;99.90
18147;DHT22;9199;48.832;9.182;2024-02-26T01:55:31;7.70;99.90
18147;DHT22;9199;48.832;9.182;2024-02-26T01:57:58;7.70;99.90
18147;DHT22;9199;48.832;9.182;2024-02-26T02:00:25;7.70;99.90
18147;DHT22;9199;48.832;9.182;2024-02-26T02:02:52;7.70;99.90
18147;DHT22;9199;48.832;9.182;2024-02-26T02:05:22;7.70;99.90
18147;DHT22;9199;48.832;9.182;2024-02-26T02:07:49;7.70;99.90
18147;DHT22;9199;48.832;9.182;2024-02-26T02:10:16;7.70;99.90
18147;DHT22;9199;48.832;9.182;2024-02-26T02:12:48;7.60;99.90
18147;DHT22;9199;48.832;9.182;2024-02-26T02:15:15;7.60;99.90
18147;DHT22;9199;48.832;9.182;2024-02-26T02:17:41;7.60;99.90
18147;DHT22;9199;48.832;9.182;2024-02-26T02:20:09;7.60;99.90
18147;DHT22;9199;48.832;9.182;2024-02-26T02:22:37;7.60;99.90
18147;DHT22;9199;48.832;9.182;2024-02-26T02:25:04;7.70;99.90
18147;DHT22;9199;48.832;9.182;2024-02-26T02:27:31;7.70;99.90
18147;DHT22;9199;48.832;9.182;2024-02-26T02:29:58;7.70;99.90
18147;DHT22;9199;48.832;9.182;2024-02-26T02:32:25;7.80;99.90
18147;DHT22;9199;48.832;9.182;2024-02-26T02:34:53;7.80;99.90
18147;DHT22;9199;48.832;9.182;2024-02-26T02:37:20;7.80;99.90
18147;DHT22;9199;48.832;9.182;2024-02-26T02:39:48;7.80;99.90
18147;DHT22;9199;48.832;9.182;2024-02-26T02:42:15;7.80;99.90
18147;DHT22;9199;48.832;9.182;2024-02-26T02:44:41;7.90;99.90
18147;DHT22;9199;48.832;9.182;2024-02-26T02:47:10;7.90;99.90
18147;DHT22;9199;48.832;9.182;2024-02-26T02:49:36;7.90;99.90
18147;DHT22;9199;48.832;9.182;2024-02-26T02:52:04;7.90;99.90
18147;DHT22;9199;48.832;9.182;2024-02-26T02:54:31;7.90;99.90
18147;DHT22;9199;48.832;9.182;2024-02-26T02:56:59;7.90;99.90
18147;DHT22;9199;48.832;9.182;2024-02-26T02:59:26;7.90;99.90
18147;DHT22;9199;48.832;9.182;2024-02-26T03:01:53;7.90;99.90
18147;DHT22;9199;48.832;9.182;2024-02-26T03:04:19;7.80;99.90
18147;DHT22;9199;48.832;9.182;2024-02-26T03:06:46;7.80;99.90
18147;DHT22;9199;48.832;9.182;2024-02-26T03:09:13;7.80;99.90
18147;DHT22;9199;48.832;9.182;2024-02-26T03:11:39;7.80;99.90
18147;DHT22;9199;48.832;9.182;2024-02-26T03:14:07;7.80;99.90
18147;DHT22;9199;48.832;9.182;2024-02-26T03:16:35;7.80;99.90
18147;DHT22;9199;48.832;9.182;2024-02-26T03:19:01;7.90;99.90
18147;DHT22;9199;48.832;9.182;2024-02-26T03:21:29;7.90;99.90
18147;DHT22;9199;48.832;9.182;2024-02-26T03:23:56;7.90;99.90
18147;DHT22;9199;48.832;9.182;2024-02-26T03:26:23;7.90;99.90
18147;DHT22;9199;48.832;9.182;2024-02-26T03:28:49;7.80;99.90
18147;DHT22;9199;48.832;9.182;2024-02-26T03:31:17;7.80;99.90
18147;DHT22;9199;48.832;9.182;2024-02-26T03:33:45;7.70;99.90
18147;DHT22;9199;48.832;9.182;2024-02-26T03:36:11;7.60;99.90
18147;DHT22;9199;48.832;9.182;2024-02-26T03:38:38;7.60;99.90
18147;DHT22;9199;48.832;9.182;2024-02-26T03:41:05;7.60;99.90
18147;DHT22;9199;48.832;9.182;2024-02-26T03:43:34;7.60;99.90
18147;DHT22;9199;48.832;9.182;2024-02-26T03:46:00;7.60;99.90
18147;DHT22;9199;48.832;9.182;2024-02-26T03:48:29;7.60;99.90
18147;DHT22;9199;48.832;9.182;2024-02-26T03:50:55;7.60;99.90
18147;DHT22;9199;48.832;9.182;2024-02-26T03:53:22;7.50;99.90
18147;DHT22;9199;48.832;9.182;2024-02-26T03:55:48;7.50;99.90
18147;DHT22;9199;48.832;9.182;2024-02-26T03:58:17;7.50;99.90
18147;DHT22;9199;48.832;9.182;2024-02-26T04:00:44;7.40;99.90
18147;DHT22;9199;48.832;9.182;2024-02-26T04:03:12;7.40;99.90
18147;DHT22;9199;48.832;9.182;2024-02-26T04:05:40;7.40;99.90
18147;DHT22;9199;48.832;9.182;2024-02-26T04:08:07;7.40;99.90
18147;DHT22;9199;48.832;9.182;2024-02-26T04:10:36;7.50;99.90
18147;DHT22;9199;48.832;9.182;2024-02-26T04:13:04;7.60;99.90
18147;DHT22;9199;48.832;9.182;2024-02-26T04:15:31;7.60;99.90
18147;DHT22;9199;48.832;9.182;2024-02-26T04:17:58;7.70;99.90
18147;DHT22;9199;48.832;9.182;2024-02-26T04:20:24;7.70;99.90
18147;DHT22;9199;48.832;9.182;2024-02-26T04:22:52;7.70;99.90
18147;DHT22;9199;48.832;9.182;2024-02-26T04:25:19;7.70;99.90
18147;DHT22;9199;48.832;9.182;2024-02-26T04:27:46;7.60;99.90
18147;DHT22;9199;48.832;9.182;2024-02-26T04:30:12;7.50;99.90
18147;DHT22;9199;48.832;9.182;2024-02-26T04:32:39;7.50;99.90
18147;DHT22;9199;48.832;9.182;2024-02-26T04:35:06;7.50;99.90
18147;DHT22;9199;48.832;9.182;2024-02-26T04:37:33;7.50;99.90
18147;DHT22;9199;48.832;9.182;2024-02-26T04:40:01;7.60;99.90
18147;DHT22;9199;48.832;9.182;2024-02-26T04:42:28;7.60;99.90
18147;DHT22;9199;48.832;9.182;2024-02-26T04:44:55;7.60;99.90
18147;DHT22;9199;48.832;9.182;2024-02-26T04:47:21;7.70;99.90
18147;DHT22;9199;48.832;9.182;2024-02-26T04:49:49;7.70;99.90
18147;DHT22;9199;48.832;9.182;2024-02-26T04:52:16;7.70;99.90
18147;DHT22;9199;48.832;9.182;2024-02-26T04:54:42;7.70;99.90
18147;DHT22;9199;48.832;9.182;2024-02-26T04:57:10;7.70;99.90
18147;DHT22;9199;48.832;9.182;2024-02-26T04:59:37;7.70;99.90
18147;DHT22;9199;48.832;9.182;2024-02-26T05:02:04;7.70;99.90
18147;DHT22;9199;48.832;9.182;2024-02-26T05:04:30;7.70;99.90
18147;DHT22;9199;48.832;9.182;2024-02-26T05:06:57;7.70;99.90
18147;DHT22;9199;48.832;9.182;2024-02-26T05:09:24;7.60;99.90
18147;DHT22;9199;48.832;9.182;2024-02-26T05:11:50;7.60;99.90
18147;DHT22;9199;48.832;9.182;2024-02-26T05:14:18;7.50;99.90
18147;DHT22;9199;48.832;9.182;2024-02-26T05:16:45;7.50;99.90
18147;DHT22;9199;48.832;9.182;2024-02-26T05:19:12;7.50;99.90
18147;DHT22;9199;48.832;9.182;2024-02-26T05:21:39;7.40;99.90
18147;DHT22;9199;48.832;9.182;2024-02-26T05:24:08;7.40;99.90
18147;DHT22;9199;48.832;9.182;2024-02-26T05:26:35;7.40;99.90
18147;DHT22;9199;48.832;9.182;2024-02-26T05:29:01;7.40;99.90
18147;DHT22;9199;48.832;9.182;2024-02-26T05:31:29;7.40;99.90
18147;DHT22;9199;48.832;9.182;2024-02-26T05:33:56;7.50;99.90
18147;DHT22;9199;48.832;9.182;2024-02-26T05:36:23;7.50;99.90
18147;DHT22;9199;48.832;9.182;2024-02-26T05:38:51;7.50;99.90
18147;DHT22;9199;48.832;9.182;2024-02-26T05:41:18;7.50;99.90
18147;DHT22;9199;48.832;9.182;2024-02-26T05:43:48;7.50;99.90
18147;DHT22;9199;48.832;9.182;2024-02-26T05:46:16;7.50;99.90
18147;DHT22;9199;48.832;9.182;2024-02-26T05:48:44;7.50;99.90
18147;DHT22;9199;48.832;9.182;2024-02-26T05:51:11;7.50;99.90
18147;DHT22;9199;48.832;9.182;2024-02-26T05:53:37;7.50;99.90
18147;DHT22;9199;48.832;9.182;2024-02-26T05:56:05;7.60;99.90
18147;DHT22;9199;48.832;9.182;2024-02-26T05:58:32;7.60;99.90
18147;DHT22;9199;48.832;9.182;2024-02-26T06:00:59;7.50;99.90
18147;DHT22;9199;48.832;9.182;2024-02-26T06:03:26;7.50;99.90
18147;DHT22;9199;48.832;9.182;2024-02-26T06:05:54;8.10;99.90
18147;DHT22;9199;48.832;9.182;2024-02-26T06:08:21;8.80;99.90
18147;DHT22;9199;48.832;9.182;2024-02-26T06:10:47;9.20;99.90
18147;DHT22;9199;48.832;9.182;2024-02-26T06:13:14;9.20;99.90
18147;DHT22;9199;48.832;9.182;2024-02-26T06:15:41;8.90;99.90
18147;DHT22;9199;48.832;9.182;2024-02-26T06:18:07;8.50;99.90
18147;DHT22;9199;48.832;9.182;2024-02-26T06:20:34;8.30;99.90
18147;DHT22;9199;48.832;9.182;2024-02-26T06:23:02;8.00;99.90
18147;DHT22;9199;48.832;9.182;2024-02-26T06:25:29;7.80;99.90
18147;DHT22;9199;48.832;9.182;2024-02-26T06:27:56;7.60;99.90
18147;DHT22;9199;48.832;9.182;2024-02-26T06:30:22;7.50;99.90
18147;DHT22;9199;48.832;9.182;2024-02-26T06:32:49;7.40;99.90
18147;DHT22;9199;48.832;9.182;2024-02-26T06:35:16;7.30;99.90
18147;DHT22;9199;48.832;9.182;2024-02-26T06:37:42;7.30;99.90
18147;DHT22;9199;48.832;9.182;2024-02-26T06:40:11;7.20;99.90
18147;DHT22;9199;48.832;9.182;2024-02-26T06:42:38;7.30;99.90
18147;DHT22;9199;48.832;9.182;2024-02-26T06:45:05;7.30;99.90
18147;DHT22;9199;48.832;9.182;2024-02-26T06:47:33;7.30;99.90
18147;DHT22;9199;48.832;9.182;2024-02-26T06:49:59;7.40;99.90
18147;DHT22;9199;48.832;9.182;2024-02-26T06:52:26;7.50;99.90
18147;DHT22;9199;48.832;9.182;2024-02-26T06:54:53;7.50;99.90
18147;DHT22;9199;48.832;9.182;2024-02-26T06:57:21;7.50;99.90
18147;DHT22;9199;48.832;9.182;2024-02-26T06:59:48;7.50;99.90
18147;DHT22;9199;48.832;9.182;2024-02-26T07:02:14;7.60;99.90
18147;DHT22;9199;48.832;9.182;2024-02-26T07:04:41;7.60;99.90
18147;DHT22;9199;48.832;9.182;2024-02-26T07:07:08;7.60;99.90
18147;DHT22;9199;48.832;9.182;2024-02-26T07:09:35;7.60;99.90
18147;DHT22;9199;48.832;9.182;2024-02-26T07:12:03;7.60;99.90
18147;DHT22;9199;48.832;9.182;2024-02-26T07:14:31;7.70;99.90
18147;DHT22;9199;48.832;9.182;2024-02-26T07:16:58;7.70;99.90
18147;DHT22;9199;48.832;9.182;2024-02-26T07:19:24;7.90;99.90
18147;DHT22;9199;48.832;9.182;2024-02-26T07:21:51;8.00;99.90
18147;DHT22;9199;48.832;9.182;2024-02-26T07:24:18;8.00;99.90
18147;DHT22;9199;48.832;9.182;2024-02-26T07:26:44;8.10;99.90
18147;DHT22;9199;48.832;9.182;2024-02-26T07:29:11;8.10;99.90
18147;DHT22;9199;48.832;9.182;2024-02-26T07:31:39;8.10;99.90
18147;DHT22;9199;48.832;9.182;2024-02-26T07:34:06;8.10;99.90
18147;DHT22;9199;48.832;9.182;2024-02-26T07:36:33;8.00;99.90
18147;DHT22;9199;48.832;9.182;2024-02-26T07:39:00;8.00;99.90
18147;DHT22;9199;48.832;9.182;2024-02-26T07:41:27;7.90;99.90
18147;DHT22;9199;48.832;9.182;2024-02-26T07:43:53;7.90;99.90
18147;DHT22;9199;48.832;9.182;2024-02-26T07:46:20;7.90;99.90
18147;DHT22;9199;48.832;9.182;2024-02-26T07:48:48;7.90;99.90
18147;DHT22;9199;48.832;9.182;2024-02-26T07:51:15;8.00;99.90
18147;DHT22;9199;48.832;9.182;2024-02-26T07:53:42;8.10;99.90
18147;DHT22;9199;48.832;9.182;2024-02-26T07:56:09;8.10;99.90
18147;DHT22;9199;48.832;9.182;2024-02-26T07:58:36;8.30;99.90
18147;DHT22;9199;48.832;9.182;2024-02-26T08:01:03;8.40;99.90
18147;DHT22;9199;48.832;9.182;2024-02-26T08:03:30;8.50;99.90
18147;DHT22;9199;48.832;9.182;2024-02-26T08:05:58;8.60;99.90
18147;DHT22;9199;48.832;9.182;2024-02-26T08:08:24;8.70;99.90
18147;DHT22;9199;48.832;9.182;2024-02-26T08:10:51;8.70;99.90
18147;DHT22;9199;48.832;9.182;2024-02-26T08:13:17;8.80;99.90
18147;DHT22;9199;48.832;9.182;2024-02-26T08:15:44;8.80;99.90
18147;DHT22;9199;48.832;9.182;2024-02-26T08:18:11;8.90;99.90
18147;DHT22;9199;48.832;9.182;2024-02-26T08:20:37;9.00;99.90
18147;DHT22;9199;48.832;9.182;2024-02-26T08:23:06;9.10;99.90
18147;DHT22;9199;48.832;9.182;2024-02-26T08:25:32;9.20;99.90
18147;DHT22;9199;48.832;9.182;2024-02-26T08:27:59;9.20;99.90
18147;DHT22;9199;48.832;9.182;2024-02-26T08:30:26;9.20;99.90
18147;DHT22;9199;48.832;9.182;2024-02-26T08:32:53;9.20;99.90
18147;DHT22;9199;48.832;9.182;2024-02-26T08:35:20;9.10;99.90
18147;DHT22;9199;48.832;9.182;2024-02-26T08:37:46;9.20;99.90
18147;DHT22;9199;48.832;9.182;2024-02-26T08:40:15;9.20;99.90
18147;DHT22;9199;48.832;9.182;2024-02-26T08:42:42;9.30;99.90
18147;DHT22;9199;48.832;9.182;2024-02-26T08:45:09;9.30;99.90
18147;DHT22;9199;48.832;9.182;2024-02-26T08:47:36;9.30;99.90
18147;DHT22;9199;48.832;9.182;2024-02-26T08:50:04;9.40;99.90
18147;DHT22;9199;48.832;9.182;2024-02-26T08:52:31;9.50;99.90
18147;DHT22;9199;48.832;9.182;2024-02-26T08:54:57;9.50;99.90
18147;DHT22;9199;48.832;9.182;2024-02-26T08:57:25;9.60;99.90
18147;DHT22;9199;48.832;9.182;2024-02-26T08:59:52;9.70;99.90
18147;DHT22;9199;48.832;9.182;2024-02-26T09:02:19;9.70;99.90
18147;DHT22;9199;48.832;9.182;2024-02-26T09:04:46;9.80;99.90
18147;DHT22;9199;48.832;9.182;2024-02-26T09:07:12;9.90;99.90
18147;DHT22;9199;48.832;9.182;2024-02-26T09:09:39;9.90;99.90
18147;DHT22;9199;48.832;9.182;2024-02-26T09:12:06;9.80;99.90
18147;DHT22;9199;48.832;9.182;2024-02-26T09:14:34;9.80;99.90
18147;DHT22;9199;48.832;9.182;2024-02-26T09:17:01;9.90;99.90
18147;DHT22;9199;48.832;9.182;2024-02-26T09:19:27;9.80;99.90
18147;DHT22;9199;48.832;9.182;2024-02-26T09:21:54;9.90;99.90
18147;DHT22;9199;48.832;9.182;2024-02-26T09:24:23;9.90;99.90
18147;DHT22;9199;48.832;9.182;2024-02-26T09:26:50;9.90;99.90
18147;DHT22;9199;48.832;9.182;2024-02-26T09:29:17;10.00;99.90
18147;DHT22;9199;48.832;9.182;2024-02-26T09:31:45;10.00;99.90
18147;DHT22;9199;48.832;9.182;2024-02-26T09:34:12;10.00;99.90
18147;DHT22;9199;48.832;9.182;2024-02-26T09:36:39;10.00;99.90
18147;DHT22;9199;48.832;9.182;2024-02-26T09:39:06;10.10;99.90
18147;DHT22;9199;48.832;9.182;2024-02-26T09:41:36;10.10;99.90
18147;DHT22;9199;48.832;9.182;2024-02-26T09:44:05;10.10;99.90
18147;DHT22;9199;48.832;9.182;2024-02-26T09:46:33;10.00;99.90
18147;DHT22;9199;48.832;9.182;2024-02-26T09:49:01;10.10;99.90
18147;DHT22;9199;48.832;9.182;2024-02-26T09:51:28;10.10;99.90
18147;DHT22;9199;48.832;9.182;2024-02-26T09:53:56;10.20;99.90
18147;DHT22;9199;48.832;9.182;2024-02-26T09:56:26;10.50;99.90
18147;DHT22;9199;48.832;9.182;2024-02-26T09:58:56;10.70;99.90
18147;DHT22;9199;48.832;9.182;2024-02-26T10:01:24;10.90;99.90
18147;DHT22;9199;48.832;9.182;2024-02-26T10:03:55;11.00;99.90
18147;DHT22;9199;48.832;9.182;2024-02-26T10:06:25;11.30;99.90
18147;DHT22;9199;48.832;9.182;2024-02-26T10:08:53;11.60;99.90
18147;DHT22;9199;48.832;9.182;2024-02-26T10:11:20;11.80;99.90
18147;DHT22;9199;48.832;9.182;2024-02-26T10:13:48;12.10;99.90
18147;DHT22;9199;48.832;9.182;2024-02-26T10:16:16;12.70;99.90
18147;DHT22;9199;48.832;9.182;2024-02-26T10:18:47;13.60;99.90
18147;DHT22;9199;48.832;9.182;2024-02-26T10:21:16;13.80;99.90
18147;DHT22;9199;48.832;9.182;2024-02-26T10:23:44;14.40;99.90
18147;DHT22;9199;48.832;9.182;2024-02-26T10:26:13;15.00;99.90
18147;DHT22;9199;48.832;9.182;2024-02-26T10:28:41;15.20;99.90
18147;DHT22;9199;48.832;9.182;2024-02-26T10:31:08;15.50;97.30
18147;DHT22;9199;48.832;9.182;2024-02-26T10:33:37;15.90;96.90
18147;DHT22;9199;48.832;9.182;2024-02-26T10:36:04;16.70;95.90
18147;DHT22;9199;48.832;9.182;2024-02-26T10:38:33;17.40;94.90
18147;DHT22;9199;48.832;9.182;2024-02-26T10:41:01;17.80;93.60
18147;DHT22;9199;48.832;9.182;2024-02-26T10:43:28;18.00;92.50
18147;DHT22;9199;48.832;9.182;2024-02-26T10:45:55;17.80;92.40
18147;DHT22;9199;48.832;9.182;2024-02-26T10:48:22;17.30;93.30
18147;DHT22;9199;48.832;9.182;2024-02-26T10:50:49;17.00;93.70
18147;DHT22;9199;48.832;9.182;2024-02-26T10:53:17;16.80;91.90
18147;DHT22;9199;48.832;9.182;2024-02-26T10:55:51;16.60;91.00
18147;DHT22;9199;48.832;9.182;2024-02-26T10:58:20;16.40;91.00
18147;DHT22;9199;48.832;9.182;2024-02-26T11:00:49;16.60;90.50
18147;DHT22;9199;48.832;9.182;2024-02-26T11:03:17;16.60;91.00
18147;DHT22;9199;48.832;9.182;2024-02-26T11:05:46;16.80;90.60
18147;DHT22;9199;48.832;9.182;2024-02-26T11:08:14;17.20;90.80
18147;DHT22;9199;48.832;9.182;2024-02-26T11:10:42;17.40;90.10
18147;DHT22;9199;48.832;9.182;2024-02-26T11:13:11;18.00;86.90
18147;DHT22;9199;48.832;9.182;2024-02-26T11:15:40;18.40;86.10
18147;DHT22;9199;48.832;9.182;2024-02-26T11:18:08;18.50;82.00
18147;DHT22;9199;48.832;9.182;2024-02-26T11:20:38;19.40;78.40
18147;DHT22;9199;48.832;9.182;2024-02-26T11:23:07;20.20;77.30
18147;DHT22;9199;48.832;9.182;2024-02-26T11:25:34;20.50;76.40
18147;DHT22;9199;48.832;9.182;2024-02-26T11:28:04;20.80;75.00
18147;DHT22;9199;48.832;9.182;2024-02-26T11:30:35;19.80;74.00
18147;DHT22;9199;48.832;9.182;2024-02-26T11:33:06;19.30;72.20
18147;DHT22;9199;48.832;9.182;2024-02-26T11:35:34;18.90;72.80
18147;DHT22;9199;48.832;9.182;2024-02-26T11:38:01;18.70;75.30
18147;DHT22;9199;48.832;9.182;2024-02-26T11:40:28;18.30;76.40
18147;DHT22;9199;48.832;9.182;2024-02-26T11:42:55;17.60;77.60
18147;DHT22;9199;48.832;9.182;2024-02-26T11:45:52;17.30;79.00
18147;DHT22;9199;48.832;9.182;2024-02-26T11:48:22;17.30;80.90
18147;DHT22;9199;48.832;9.182;2024-02-26T11:50:51;17.40;78.60
18147;DHT22;9199;48.832;9.182;2024-02-26T11:53:25;17.40;78.20
18147;DHT22;9199;48.832;9.182;2024-02-26T11:56:20;17.60;78.90
18147;DHT22;9199;48.832;9.182;2024-02-26T11:58:48;17.40;76.70
18147;DHT22;9199;48.832;9.182;2024-02-26T12:01:38;17.00;77.20
18147;DHT22;9199;48.832;9.182;2024-02-26T12:04:07;16.60;78.00
18147;DHT22;9199;48.832;9.182;2024-02-26T12:06:55;16.50;79.30
18147;DHT22;9199;48.832;9.182;2024-02-26T12:09:32;16.10;80.10
18147;DHT22;9199;48.832;9.182;2024-02-26T12:11:58;15.80;82.10
18147;DHT22;9199;48.832;9.182;2024-02-26T12:14:26;15.70;82.50
18147;DHT22;9199;48.832;9.182;2024-02-26T12:16:53;15.80;83.50
18147;DHT22;9199;48.832;9.182;2024-02-26T12:19:23;15.70;83.10
18147;DHT22;9199;48.832;9.182;2024-02-26T12:21:51;15.40;83.90
18147;DHT22;9199;48.832;9.182;2024-02-26T12:24:19;15.20;84.60
18147;DHT22;9199;48.832;9.182;2024-02-26T12:26:46;14.90;85.90
18147;DHT22;9199;48.832;9.182;2024-02-26T12:29:13;14.80;87.70
18147;DHT22;9199;48.832;9.182;2024-02-26T12:31:40;14.70;87.70
18147;DHT22;9199;48.832;9.182;2024-02-26T12:34:07;14.60;87.60
18147;DHT22;9199;48.832;9.182;2024-02-26T12:36:37;14.50;88.90
18147;DHT22;9199;48.832;9.182;2024-02-26T12:39:05;14.40;89.30
18147;DHT22;9199;48.832;9.182;2024-02-26T12:41:33;14.40;90.00
18147;DHT22;9199;48.832;9.182;2024-02-26T12:44:00;14.40;90.10
18147;DHT22;9199;48.832;9.182;2024-02-26T12:46:27;14.40;90.30
18147;DHT22;9199;48.832;9.182;2024-02-26T12:48:56;14.50;90.10
18147;DHT22;9199;48.832;9.182;2024-02-26T12:51:24;14.70;90.50
18147;DHT22;9199;48.832;9.182;2024-02-26T12:53:53;14.90;90.50
18147;DHT22;9199;48.832;9.182;2024-02-26T12:56:21;15.00;90.30
18147;DHT22;9199;48.832;9.182;2024-02-26T12:58:48;15.10;90.10
18147;DHT22;9199;48.832;9.182;2024-02-26T13:01:19;15.20;90.00
18147;DHT22;9199;48.832;9.182;2024-02-26T13:03:48;15.40;89.80
18147;DHT22;9199;48.832;9.182;2024-02-26T13:06:15;15.40;89.80
18147;DHT22;9199;48.832;9.182;2024-02-26T13:08:42;15.40;89.40
18147;DHT22;9199;48.832;9.182;2024-02-26T13:11:10;15.60;88.70
18147;DHT22;9199;48.832;9.182;2024-02-26T13:13:37;15.80;90.10
18147;DHT22;9199;48.832;9.182;2024-02-26T13:16:04;16.00;88.10
18147;DHT22;9199;48.832;9.182;2024-02-26T13:18:33;16.00;86.80
18147;DHT22;9199;48.832;9.182;2024-02-26T13:21:09;16.00;87.30
18147;DHT22;9199;48.832;9.182;2024-02-26T13:23:36;16.00;89.50
18147;DHT22;9199;48.832;9.182;2024-02-26T13:26:03;16.20;89.80
18147;DHT22;9199;48.832;9.182;2024-02-26T13:28:31;16.50;89.80
18147;DHT22;9199;48.832;9.182;2024-02-26T13:30:58;16.70;87.90
18147;DHT22;9199;48.832;9.182;2024-02-26T13:33:27;16.80;87.20
18147;DHT22;9199;48.832;9.182;2024-02-26T13:35:55;17.00;87.30
18147;DHT22;9199;48.832;9.182;2024-02-26T13:38:22;17.60;86.50
18147;DHT22;9199;48.832;9.182;2024-02-26T13:40:50;17.70;86.50
18147;DHT22;9199;48.832;9.182;2024-02-26T13:43:16;17.70;87.40
18147;DHT22;9199;48.832;9.182;2024-02-26T13:45:44;17.60;87.70
18147;DHT22;9199;48.832;9.182;2024-02-26T13:48:12;18.10;86.10
18147;DHT22;9199;48.832;9.182;2024-02-26T13:50:39;18.20;85.50
18147;DHT22;9199;48.832;9.182;2024-02-26T13:53:06;18.00;85.80
18147;DHT22;9199;48.832;9.182;2024-02-26T13:55:33;17.80;85.60
18147;DHT22;9199;48.832;9.182;2024-02-26T13:58:00;17.80;86.00
18147;DHT22;9199;48.832;9.182;2024-02-26T14:00:27;17.70;84.60
18147;DHT22;9199;48.832;9.182;2024-02-26T14:02:55;17.40;85.80
18147;DHT22;9199;48.832;9.182;2024-02-26T14:05:22;17.00;85.30
18147;DHT22;9199;48.832;9.182;2024-02-26T14:07:49;17.00;84.80
18147;DHT22;9199;48.832;9.182;2024-02-26T14:10:15;17.10;85.00
18147;DHT22;9199;48.832;9.182;2024-02-26T14:12:42;17.40;85.60
18147;DHT22;9199;48.832;9.182;2024-02-26T14:15:10;18.10;83.40
18147;DHT22;9199;48.832;9.182;2024-02-26T14:17:37;18.50;82.00
18147;DHT22;9199;48.832;9.182;2024-02-26T14:20:06;18.10;82.50
18147;DHT22;9199;48.832;9.182;2024-02-26T14:22:34;17.80;83.40
18147;DHT22;9199;48.832;9.182;2024-02-26T14:25:01;17.50;83.00
18147;DHT22;9199;48.832;9.182;2024-02-26T14:27:27;17.40;85.00
18147;DHT22;9199;48.832;9.182;2024-02-26T14:29:54;17.20;85.20
18147;DHT22;9199;48.832;9.182;2024-02-26T14:32:21;17.50;83.20
18147;DHT22;9199;48.832;9.182;2024-02-26T14:34:48;17.50;83.20
18147;DHT22;9199;48.832;9.182;2024-02-26T14:37:16;17.40;83.70
18147;DHT22;9199;48.832;9.182;2024-02-26T14:39:43;17.40;83.90
18147;DHT22;9199;48.832;9.182;2024-02-26T14:42:09;18.10;83.20
18147;DHT22;9199;48.832;9.182;2024-02-26T14:44:36;19.30;79.50
18147;DHT22;9199;48.832;9.182;2024-02-26T14:47:03;19.20;78.40
18147;DHT22;9199;48.832;9.182;2024-02-26T14:49:30;19.70;77.60
18147;DHT22;9199;48.832;9.182;2024-02-26T14:51:57;20.00;76.40
18147;DHT22;9199;48.832;9.182;2024-02-26T14:54:25;19.60;76.70
18147;DHT22;9199;48.832;9.182;2024-02-26T14:56:52;18.60;77.80
18147;DHT22;9199;48.832;9.182;2024-02-26T14:59:18;18.00;80.00
18147;DHT22;9199;48.832;9.182;2024-02-26T15:01:45;17.90;80.10
18147;DHT22;9199;48.832;9.182;2024-02-26T15:04:12;17.80;80.40
18147;DHT22;9199;48.832;9.182;2024-02-26T15:06:38;17.80;81.10
18147;DHT22;9199;48.832;9.182;2024-02-26T15:09:05;17.50;82.00
18147;DHT22;9199;48.832;9.182;2024-02-26T15:11:37;17.00;83.90
18147;DHT22;9199;48.832;9.182;2024-02-26T15:14:04;16.50;84.60
18147;DHT22;9199;48.832;9.182;2024-02-26T15:16:31;15.90;87.10
18147;DHT22;9199;48.832;9.182;2024-02-26T15:18:58;15.60;88.50
18147;DHT22;9199;48.832;9.182;2024-02-26T15:21:24;15.40;90.60
18147;DHT22;9199;48.832;9.182;2024-02-26T15:23:51;15.20;90.80
18147;DHT22;9199;48.832;9.182;2024-02-26T15:26:19;15.30;91.10
18147;DHT22;9199;48.832;9.182;2024-02-26T15:28:48;15.30;90.60
18147;DHT22;9199;48.832;9.182;2024-02-26T15:31:15;15.30;91.40
18147;DHT22;9199;48.832;9.182;2024-02-26T15:33:42;15.10;90.80
18147;DHT22;9199;48.832;9.182;2024-02-26T15:36:09;14.90;91.30
18147;DHT22;9199;48.832;9.182;2024-02-26T15:38:36;14.90;91.70
18147;DHT22;9199;48.832;9.182;2024-02-26T15:41:10;14.70;91.30
18147;DHT22;9199;48.832;9.182;2024-02-26T15:43:37;14.70;91.50
18147;DHT22;9199;48.832;9.182;2024-02-26T15:46:05;14.50;91.90
18147;DHT22;9199;48.832;9.182;2024-02-26T15:48:32;14.30;92.00
18147;DHT22;9199;48.832;9.182;2024-02-26T15:50:59;14.10;92.40
18147;DHT22;9199;48.832;9.182;2024-02-26T15:53:25;13.90;92.80
18147;DHT22;9199;48.832;9.182;2024-02-26T15:55:52;13.80;93.30